sensor_id;sensor_type;location;lat;lon;timestamp;pressure;altitude;pressure_sealevel;temperature;humidity
37238;BME280;23129;49.662;8.448;2023-08-17T00:02:13;100817.72;;;19.13;100.00
37238;BME280;23129;49.662;8.448;2023-08-17T00:04:41;100814.28;;;19.11;100.00
37238;BME280;23129;49.662;8.448;2023-08-17T00:07:10;100816.19;;;19.09;100.00
37238;BME280;23129;49.662;8.448;2023-08-17T00:09:40;100822.53;;;19.07;100.00
37238;BME280;23129;49.662;8.448;2023-08-17T00:12:09;100825.28;;;19.05;100.00
37238;BME280;23129;49.662;8.448;2023-08-17T00:14:38;100826.31;;;19.03;100.00
37238;BME280;23129;49.662;8.448;2023-08-17T00:17:06;100823.75;;;19.01;100.00
37238;BME280;23129;49.662;8.448;2023-08-17T00:19:35;100827.34;;;19.00;100.00
37238;BME280;23129;49.662;8.448;2023-08-17T00:22:04;100818.59;;;18.98;100.00
37238;BME280;23129;49.662;8.448;2023-08-17T00:24:32;100823.91;;;18.98;100.00
37238;BME280;23129;49.662;8.448;2023-08-17T00:27:03;100819.56;;;18.97;100.00
37238;BME280;23129;49.662;8.448;2023-08-17T00:29:32;100824.09;;;18.95;100.00
37238;BME280;23129;49.662;8.448;2023-08-17T00:32:02;100820.59;;;18.95;100.00
37238;BME280;23129;49.662;8.448;2023-08-17T00:34:31;100833.03;;;18.94;100.00
37238;BME280;23129;49.662;8.448;2023-08-17T00:37:00;100818.94;;;18.92;100.00
37238;BME280;23129;49.662;8.448;2023-08-17T00:39:29;100814.59;;;18.91;100.00
37238;BME280;23129;49.662;8.448;2023-08-17T00:41:58;100821.78;;;18.89;100.00
37238;BME280;23129;49.662;8.448;2023-08-17T00:44:28;100815.63;;;18.88;100.00
37238;BME280;23129;49.662;8.448;2023-08-17T00:46:57;100813.97;;;18.86;100.00
37238;BME280;23129;49.662;8.448;2023-08-17T00:49:25;100810.53;;;18.84;100.00
37238;BME280;23129;49.662;8.448;2023-08-17T00:51:54;100804.47;;;18.82;100.00
37238;BME280;23129;49.662;8.448;2023-08-17T00:54:25;100802.66;;;18.82;100.00
37238;BME280;23129;49.662;8.448;2023-08-17T00:56:54;100803.69;;;18.80;100.00
37238;BME280;23129;49.662;8.448;2023-08-17T00:59:24;100804.66;;;18.79;100.00
37238;BME280;23129;49.662;8.448;2023-08-17T01:01:54;100798.56;;;18.77;100.00
37238;BME280;23129;49.662;8.448;2023-08-17T01:04:23;100799.41;;;18.77;100.00
37238;BME280;23129;49.662;8.448;2023-08-17T01:06:51;100796.84;;;18.76;100.00
37238;BME280;23129;49.662;8.448;2023-08-17T01:09:20;100800.44;;;18.75;100.00
37238;BME280;23129;49.662;8.448;2023-08-17T01:11:55;100804.91;;;18.74;100.00
37238;BME280;23129;49.662;8.448;2023-08-17T01:14:32;100802.31;;;18.73;100.00
37238;BME280;23129;49.662;8.448;2023-08-17T01:17:10;100802.38;;;18.71;100.00
37238;BME280;23129;49.662;8.448;2023-08-17T01:19:41;100808.66;;;18.70;100.00
37238;BME280;23129;49.662;8.448;2023-08-17T01:22:17;100811.38;;;18.68;100.00
37238;BME280;23129;49.662;8.448;2023-08-17T01:24:47;100805.28;;;18.66;100.00
37238;BME280;23129;49.662;8.448;2023-08-17T01:27:16;100803.75;;;18.62;100.00
37238;BME280;23129;49.662;8.448;2023-08-17T01:29:44;100809.16;;;18.61;100.00
37238;BME280;23129;49.662;8.448;2023-08-17T01:32:18;100806.56;;;18.59;100.00
37238;BME280;23129;49.662;8.448;2023-08-17T01:34:58;100796.97;;;18.57;100.00
37238;BME280;23129;49.662;8.448;2023-08-17T01:37:33;100791.75;;;18.55;100.00
37238;BME280;23129;49.662;8.448;2023-08-17T01:40:05;100790.03;;;18.54;100.00
37238;BME280;23129;49.662;8.448;2023-08-17T01:42:35;100790.97;;;18.53;100.00
37238;BME280;23129;49.662;8.448;2023-08-17T01:45:06;100791.03;;;18.52;100.00
37238;BME280;23129;49.662;8.448;2023-08-17T01:47:35;100785.81;;;18.50;100.00
37238;BME280;23129;49.662;8.448;2023-08-17T01:50:05;100784.97;;;18.50;100.00
37238;BME280;23129;49.662;8.448;2023-08-17T01:52:34;100784.28;;;18.46;100.00
37238;BME280;23129;49.662;8.448;2023-08-17T01:55:06;100780.69;;;18.47;100.00
37238;BME280;23129;49.662;8.448;2023-08-17T01:57:36;100783.41;;;18.45;100.00
37238;BME280;23129;49.662;8.448;2023-08-17T02:00:05;100787.03;;;18.44;100.00
37238;BME280;23129;49.662;8.448;2023-08-17T02:02:40;100787.13;;;18.43;100.00
37238;BME280;23129;49.662;8.448;2023-08-17T02:05:11;100788.03;;;18.42;100.00
37238;BME280;23129;49.662;8.448;2023-08-17T02:07:40;100786.34;;;18.41;100.00
37238;BME280;23129;49.662;8.448;2023-08-17T02:10:10;100782.91;;;18.39;100.00
37238;BME280;23129;49.662;8.448;2023-08-17T02:12:39;100776.84;;;18.37;100.00
37238;BME280;23129;49.662;8.448;2023-08-17T02:15:08;100779.50;;;18.37;100.00
37238;BME280;23129;49.662;8.448;2023-08-17T02:17:37;100772.44;;;18.36;100.00
37238;BME280;23129;49.662;8.448;2023-08-17T02:20:07;100774.34;;;18.34;100.00
37238;BME280;23129;49.662;8.448;2023-08-17T02:22:36;100769.13;;;18.32;100.00
37238;BME280;23129;49.662;8.448;2023-08-17T02:25:06;100764.66;;;18.33;100.00
37238;BME280;23129;49.662;8.448;2023-08-17T02:27:36;100767.31;;;18.33;100.00
37238;BME280;23129;49.662;8.448;2023-08-17T02:30:06;100763.88;;;18.31;100.00
37238;BME280;23129;49.662;8.448;2023-08-17T02:32:34;100770.06;;;18.31;100.00
37238;BME280;23129;49.662;8.448;2023-08-17T02:35:03;100762.16;;;18.30;100.00
37238;BME280;23129;49.662;8.448;2023-08-17T02:37:32;100757.81;;;18.29;100.00
37238;BME280;23129;49.662;8.448;2023-08-17T02:40:01;100751.53;;;18.30;100.00
37238;BME280;23129;49.662;8.448;2023-08-17T02:42:30;100754.28;;;18.28;100.00
37238;BME280;23129;49.662;8.448;2023-08-17T02:45:00;100753.41;;;18.28;100.00
37238;BME280;23129;49.662;8.448;2023-08-17T02:47:29;100758.72;;;18.28;100.00
37238;BME280;23129;49.662;8.448;2023-08-17T02:49:58;100764.03;;;18.28;100.00
37238;BME280;23129;49.662;8.448;2023-08-17T02:52:27;100765.00;;;18.27;100.00
37238;BME280;23129;49.662;8.448;2023-08-17T02:54:56;100768.50;;;18.27;100.00
37238;BME280;23129;49.662;8.448;2023-08-17T02:57:24;100768.50;;;18.27;100.00
37238;BME280;23129;49.662;8.448;2023-08-17T02:59:53;100764.22;;;18.24;100.00
37238;BME280;23129;49.662;8.448;2023-08-17T03:02:23;100772.94;;;18.27;100.00
37238;BME280;23129;49.662;8.448;2023-08-17T03:04:52;100779.97;;;18.28;100.00
37238;BME280;23129;49.662;8.448;2023-08-17T03:07:22;100774.50;;;18.31;100.00
37238;BME280;23129;49.662;8.448;2023-08-17T03:09:51;100768.00;;;18.36;100.00
37238;BME280;23129;49.662;8.448;2023-08-17T03:12:19;100764.13;;;18.42;100.00
37238;BME280;23129;49.662;8.448;2023-08-17T03:14:48;100762.09;;;18.47;100.00
37238;BME280;23129;49.662;8.448;2023-08-17T03:17:17;100762.72;;;18.52;100.00
37238;BME280;23129;49.662;8.448;2023-08-17T03:19:47;100765.94;;;18.57;100.00
37238;BME280;23129;49.662;8.448;2023-08-17T03:22:16;100769.38;;;18.59;100.00
37238;BME280;23129;49.662;8.448;2023-08-17T03:24:45;100766.47;;;18.64;100.00
37238;BME280;23129;49.662;8.448;2023-08-17T03:27:13;100764.56;;;18.66;100.00
37238;BME280;23129;49.662;8.448;2023-08-17T03:29:42;100758.22;;;18.68;100.00
37238;BME280;23129;49.662;8.448;2023-08-17T03:32:11;100757.28;;;18.69;100.00
37238;BME280;23129;49.662;8.448;2023-08-17T03:34:39;100761.66;;;18.70;100.00
37238;BME280;23129;49.662;8.448;2023-08-17T03:37:10;100766.84;;;18.74;100.00
37238;BME280;23129;49.662;8.448;2023-08-17T03:39:40;100770.16;;;18.77;100.00
37238;BME280;23129;49.662;8.448;2023-08-17T03:42:09;100777.13;;;18.80;100.00
37238;BME280;23129;49.662;8.448;2023-08-17T03:44:37;100775.25;;;18.82;100.00
37238;BME280;23129;49.662;8.448;2023-08-17T03:47:06;100768.97;;;18.83;100.00
37238;BME280;23129;49.662;8.448;2023-08-17T03:49:35;100776.94;;;18.83;100.00
37238;BME280;23129;49.662;8.448;2023-08-17T03:52:04;100776.16;;;18.81;100.00
37238;BME280;23129;49.662;8.448;2023-08-17T03:54:34;100787.56;;;18.83;100.00
37238;BME280;23129;49.662;8.448;2023-08-17T03:57:03;100780.38;;;18.85;100.00
37238;BME280;23129;49.662;8.448;2023-08-17T03:59:31;100785.69;;;18.85;100.00
37238;BME280;23129;49.662;8.448;2023-08-17T04:02:00;100777.72;;;18.85;100.00
37238;BME280;23129;49.662;8.448;2023-08-17T04:04:29;100781.22;;;18.85;100.00
37238;BME280;23129;49.662;8.448;2023-08-17T04:06:58;100775.06;;;18.85;100.00
37238;BME280;23129;49.662;8.448;2023-08-17T04:09:27;100777.72;;;18.85;100.00
37238;BME280;23129;49.662;8.448;2023-08-17T04:11:57;100784.81;;;18.84;100.00
37238;BME280;23129;49.662;8.448;2023-08-17T04:14:25;100787.56;;;18.83;100.00
37238;BME280;23129;49.662;8.448;2023-08-17T04:16:55;100788.44;;;18.83;100.00
37238;BME280;23129;49.662;8.448;2023-08-17T04:19:25;100789.28;;;18.84;100.00
37238;BME280;23129;49.662;8.448;2023-08-17T04:21:54;100790.22;;;18.83;100.00
37238;BME280;23129;49.662;8.448;2023-08-17T04:24:22;100792.88;;;18.83;100.00
37238;BME280;23129;49.662;8.448;2023-08-17T04:26:51;100797.25;;;18.84;100.00
37238;BME280;23129;49.662;8.448;2023-08-17T04:29:21;100801.81;;;18.82;100.00
37238;BME280;23129;49.662;8.448;2023-08-17T04:31:51;100802.00;;;18.79;100.00
37238;BME280;23129;49.662;8.448;2023-08-17T04:34:20;100805.75;;;18.75;100.00
37238;BME280;23129;49.662;8.448;2023-08-17T04:36:49;100800.75;;;18.68;100.00
37238;BME280;23129;49.662;8.448;2023-08-17T04:39:18;100795.59;;;18.65;100.00
37238;BME280;23129;49.662;8.448;2023-08-17T04:41:47;100801.09;;;18.62;100.00
37238;BME280;23129;49.662;8.448;2023-08-17T04:44:21;100793.28;;;18.59;100.00
37238;BME280;23129;49.662;8.448;2023-08-17T04:46:51;100794.25;;;18.58;100.00
37238;BME280;23129;49.662;8.448;2023-08-17T04:49:19;100799.56;;;18.58;100.00
37238;BME280;23129;49.662;8.448;2023-08-17T04:51:48;100797.66;;;18.60;100.00
37238;BME280;23129;49.662;8.448;2023-08-17T04:54:17;100791.25;;;18.64;100.00
37238;BME280;23129;49.662;8.448;2023-08-17T04:56:45;100795.44;;;18.68;100.00
37238;BME280;23129;49.662;8.448;2023-08-17T04:59:14;100793.56;;;18.70;100.00
37238;BME280;23129;49.662;8.448;2023-08-17T05:01:44;100796.06;;;18.74;100.00
37238;BME280;23129;49.662;8.448;2023-08-17T05:04:13;100805.56;;;18.78;100.00
37238;BME280;23129;49.662;8.448;2023-08-17T05:06:43;100810.72;;;18.81;100.00
37238;BME280;23129;49.662;8.448;2023-08-17T05:09:12;100813.13;;;18.85;100.00
37238;BME280;23129;49.662;8.448;2023-08-17T05:11:41;100821.59;;;18.92;100.00
37238;BME280;23129;49.662;8.448;2023-08-17T05:14:11;100824.75;;;18.99;100.00
37238;BME280;23129;49.662;8.448;2023-08-17T05:16:39;100827.19;;;19.03;100.00
37238;BME280;23129;49.662;8.448;2023-08-17T05:19:09;100826.03;;;19.07;100.00
37238;BME280;23129;49.662;8.448;2023-08-17T05:21:38;100820.56;;;19.10;100.00
37238;BME280;23129;49.662;8.448;2023-08-17T05:24:08;100817.53;;;19.16;100.00
37238;BME280;23129;49.662;8.448;2023-08-17T05:26:37;100822.50;;;19.23;100.00
37238;BME280;23129;49.662;8.448;2023-08-17T05:29:06;100823.09;;;19.28;100.00
37238;BME280;23129;49.662;8.448;2023-08-17T05:31:36;100816.47;;;19.35;100.00
37238;BME280;23129;49.662;8.448;2023-08-17T05:34:10;100819.72;;;19.40;100.00
37238;BME280;23129;49.662;8.448;2023-08-17T05:36:40;100822.13;;;19.45;100.00
37238;BME280;23129;49.662;8.448;2023-08-17T05:39:08;100830.66;;;19.50;100.00
37238;BME280;23129;49.662;8.448;2023-08-17T05:41:37;100834.78;;;19.55;100.00
37238;BME280;23129;49.662;8.448;2023-08-17T05:44:06;100846.97;;;19.59;100.00
37238;BME280;23129;49.662;8.448;2023-08-17T05:46:35;100838.03;;;19.60;100.00
37238;BME280;23129;49.662;8.448;2023-08-17T05:49:04;100834.34;;;19.63;100.00
37238;BME280;23129;49.662;8.448;2023-08-17T05:51:34;100839.41;;;19.68;100.00
37238;BME280;23129;49.662;8.448;2023-08-17T05:54:04;100839.03;;;19.74;100.00
37238;BME280;23129;49.662;8.448;2023-08-17T05:56:33;100833.44;;;19.78;100.00
37238;BME280;23129;49.662;8.448;2023-08-17T05:59:02;100829.56;;;19.84;100.00
37238;BME280;23129;49.662;8.448;2023-08-17T06:01:30;100822.13;;;19.89;100.00
37238;BME280;23129;49.662;8.448;2023-08-17T06:03:59;100828.91;;;19.95;100.00
37238;BME280;23129;49.662;8.448;2023-08-17T06:06:29;100822.34;;;20.00;100.00
37238;BME280;23129;49.662;8.448;2023-08-17T06:08:59;100829.97;;;20.06;100.00
37238;BME280;23129;49.662;8.448;2023-08-17T06:11:28;100833.19;;;20.12;100.00
37238;BME280;23129;49.662;8.448;2023-08-17T06:13:57;100834.06;;;20.12;100.00
37238;BME280;23129;49.662;8.448;2023-08-17T06:16:25;100836.63;;;20.14;100.00
37238;BME280;23129;49.662;8.448;2023-08-17T06:18:54;100833.00;;;20.15;100.00
37238;BME280;23129;49.662;8.448;2023-08-17T06:21:23;100842.81;;;20.14;100.00
37238;BME280;23129;49.662;8.448;2023-08-17T06:23:51;100846.41;;;20.13;100.00
37238;BME280;23129;49.662;8.448;2023-08-17T06:26:21;100838.34;;;20.15;100.00
37238;BME280;23129;49.662;8.448;2023-08-17T06:28:49;100848.81;;;20.18;100.00
37238;BME280;23129;49.662;8.448;2023-08-17T06:31:18;100845.00;;;20.22;100.00
37238;BME280;23129;49.662;8.448;2023-08-17T06:33:47;100839.28;;;20.28;100.00
37238;BME280;23129;49.662;8.448;2023-08-17T06:36:15;100843.38;;;20.34;100.00
37238;BME280;23129;49.662;8.448;2023-08-17T06:38:44;100843.09;;;20.38;100.00
37238;BME280;23129;49.662;8.448;2023-08-17T06:41:12;100843.88;;;20.40;100.00
37238;BME280;23129;49.662;8.448;2023-08-17T06:43:42;100848.13;;;20.43;100.00
37238;BME280;23129;49.662;8.448;2023-08-17T06:46:11;100843.00;;;20.40;100.00
37238;BME280;23129;49.662;8.448;2023-08-17T06:48:40;100848.44;;;20.38;100.00
37238;BME280;23129;49.662;8.448;2023-08-17T06:51:09;100849.41;;;20.37;100.00
37238;BME280;23129;49.662;8.448;2023-08-17T06:53:38;100850.91;;;20.41;100.00
37238;BME280;23129;49.662;8.448;2023-08-17T06:56:06;100844.34;;;20.47;100.00
37238;BME280;23129;49.662;8.448;2023-08-17T06:58:34;100849.34;;;20.51;100.00
37238;BME280;23129;49.662;8.448;2023-08-17T07:01:04;100850.75;;;20.59;100.00
37238;BME280;23129;49.662;8.448;2023-08-17T07:03:33;100851.84;;;20.69;100.00
37238;BME280;23129;49.662;8.448;2023-08-17T07:06:02;100843.47;;;20.75;100.00
37238;BME280;23129;49.662;8.448;2023-08-17T07:08:31;100845.00;;;20.79;100.00
37238;BME280;23129;49.662;8.448;2023-08-17T07:11:00;100847.34;;;20.84;100.00
37238;BME280;23129;49.662;8.448;2023-08-17T07:13:31;100842.66;;;20.87;100.00
37238;BME280;23129;49.662;8.448;2023-08-17T07:16:00;100853.72;;;20.95;100.00
37238;BME280;23129;49.662;8.448;2023-08-17T07:18:30;100843.59;;;21.01;100.00
37238;BME280;23129;49.662;8.448;2023-08-17T07:20:58;100846.81;;;21.06;100.00
37238;BME280;23129;49.662;8.448;2023-08-17T07:23:27;100839.78;;;21.05;100.00
37238;BME280;23129;49.662;8.448;2023-08-17T07:25:55;100841.28;;;21.09;100.00
37238;BME280;23129;49.662;8.448;2023-08-17T07:28:24;100844.41;;;21.15;100.00
37238;BME280;23129;49.662;8.448;2023-08-17T07:30:53;100844.09;;;21.20;100.00
37238;BME280;23129;49.662;8.448;2023-08-17T07:33:21;100851.16;;;21.21;100.00
37238;BME280;23129;49.662;8.448;2023-08-17T07:35:51;100861.63;;;21.24;100.00
37238;BME280;23129;49.662;8.448;2023-08-17T07:38:22;100860.34;;;21.30;100.00
37238;BME280;23129;49.662;8.448;2023-08-17T07:40:50;100861.88;;;21.34;100.00
37238;BME280;23129;49.662;8.448;2023-08-17T07:43:19;100864.94;;;21.42;100.00
37238;BME280;23129;49.662;8.448;2023-08-17T07:45:53;100868.56;;;21.54;100.00
37238;BME280;23129;49.662;8.448;2023-08-17T07:48:22;100873.31;;;21.63;100.00
37238;BME280;23129;49.662;8.448;2023-08-17T07:50:53;100865.81;;;21.68;100.00
37238;BME280;23129;49.662;8.448;2023-08-17T07:53:22;100867.16;;;21.75;100.00
37238;BME280;23129;49.662;8.448;2023-08-17T07:55:50;100859.88;;;21.77;100.00
37238;BME280;23129;49.662;8.448;2023-08-17T07:58:22;100854.53;;;21.77;100.00
37238;BME280;23129;49.662;8.448;2023-08-17T08:00:51;100848.53;;;21.86;100.00
37238;BME280;23129;49.662;8.448;2023-08-17T08:03:20;100852.72;;;22.03;100.00
37238;BME280;23129;49.662;8.448;2023-08-17T08:05:49;100850.28;;;22.13;100.00
37238;BME280;23129;49.662;8.448;2023-08-17T08:08:19;100855.75;;;22.24;100.00
37238;BME280;23129;49.662;8.448;2023-08-17T08:10:48;100853.41;;;22.32;100.00
37238;BME280;23129;49.662;8.448;2023-08-17T08:13:17;100868.25;;;22.37;100.00
37238;BME280;23129;49.662;8.448;2023-08-17T08:15:45;100873.38;;;22.40;100.00
37238;BME280;23129;49.662;8.448;2023-08-17T08:18:14;100864.19;;;22.44;100.00
37238;BME280;23129;49.662;8.448;2023-08-17T08:20:42;100866.88;;;22.44;100.00
37238;BME280;23129;49.662;8.448;2023-08-17T08:23:11;100863.31;;;22.43;100.00
37238;BME280;23129;49.662;8.448;2023-08-17T08:25:41;100867.81;;;22.43;100.00
37238;BME280;23129;49.662;8.448;2023-08-17T08:28:10;100867.59;;;22.46;100.00
37238;BME280;23129;49.662;8.448;2023-08-17T08:30:38;100858.41;;;22.50;100.00
37238;BME280;23129;49.662;8.448;2023-08-17T08:33:07;100861.59;;;22.55;100.00
37238;BME280;23129;49.662;8.448;2023-08-17T08:35:36;100864.38;;;22.66;100.00
37238;BME280;23129;49.662;8.448;2023-08-17T08:38:04;100863.69;;;22.75;100.00
37238;BME280;23129;49.662;8.448;2023-08-17T08:40:33;100846.75;;;22.88;100.00
37238;BME280;23129;49.662;8.448;2023-08-17T08:43:07;100846.09;;;23.10;100.00
37238;BME280;23129;49.662;8.448;2023-08-17T08:45:38;100842.03;;;23.28;100.00
37238;BME280;23129;49.662;8.448;2023-08-17T08:48:12;100835.84;;;23.39;100.00
37238;BME280;23129;49.662;8.448;2023-08-17T08:50:42;100843.78;;;23.40;100.00
37238;BME280;23129;49.662;8.448;2023-08-17T08:53:13;100848.91;;;23.43;100.00
37238;BME280;23129;49.662;8.448;2023-08-17T08:55:47;100845.88;;;23.48;100.00
37238;BME280;23129;49.662;8.448;2023-08-17T08:58:17;100846.84;;;23.47;100.00
37238;BME280;23129;49.662;8.448;2023-08-17T09:00:47;100840.75;;;23.45;100.00
37238;BME280;23129;49.662;8.448;2023-08-17T09:03:16;100843.09;;;23.50;100.00
37238;BME280;23129;49.662;8.448;2023-08-17T09:05:48;100849.28;;;23.50;100.00
37238;BME280;23129;49.662;8.448;2023-08-17T09:08:21;100851.75;;;23.53;100.00
37238;BME280;23129;49.662;8.448;2023-08-17T09:10:51;100848.13;;;23.65;100.00
37238;BME280;23129;49.662;8.448;2023-08-17T09:13:21;100838.09;;;23.80;100.00
37238;BME280;23129;49.662;8.448;2023-08-17T09:15:49;100834.84;;;23.99;100.00
37238;BME280;23129;49.662;8.448;2023-08-17T09:18:19;100836.44;;;24.13;100.00
37238;BME280;23129;49.662;8.448;2023-08-17T09:20:48;100831.59;;;24.29;100.00
37238;BME280;23129;49.662;8.448;2023-08-17T09:23:21;100825.88;;;24.45;100.00
37238;BME280;23129;49.662;8.448;2023-08-17T09:25:51;100834.38;;;24.62;100.00
37238;BME280;23129;49.662;8.448;2023-08-17T09:28:26;100827.41;;;24.81;100.00
37238;BME280;23129;49.662;8.448;2023-08-17T09:30:59;100825.13;;;24.77;100.00
37238;BME280;23129;49.662;8.448;2023-08-17T09:33:29;100823.75;;;24.82;100.00
37238;BME280;23129;49.662;8.448;2023-08-17T09:35:59;100836.25;;;25.16;100.00
37238;BME280;23129;49.662;8.448;2023-08-17T09:38:28;100838.81;;;25.49;100.00
37238;BME280;23129;49.662;8.448;2023-08-17T09:40:58;100834.56;;;25.68;100.00
37238;BME280;23129;49.662;8.448;2023-08-17T09:43:29;100832.38;;;25.62;100.00
37238;BME280;23129;49.662;8.448;2023-08-17T09:46:01;100819.69;;;25.64;100.00
37238;BME280;23129;49.662;8.448;2023-08-17T09:48:31;100825.44;;;25.80;100.00
37238;BME280;23129;49.662;8.448;2023-08-17T09:51:00;100822.44;;;25.94;100.00
37238;BME280;23129;49.662;8.448;2023-08-17T09:53:33;100823.72;;;26.21;100.00
37238;BME280;23129;49.662;8.448;2023-08-17T09:56:03;100822.50;;;26.75;100.00
37238;BME280;23129;49.662;8.448;2023-08-17T09:58:34;100831.63;;;27.13;100.00
37238;BME280;23129;49.662;8.448;2023-08-17T10:01:04;100823.84;;;27.68;100.00
37238;BME280;23129;49.662;8.448;2023-08-17T10:03:34;100814.56;;;28.37;100.00
37238;BME280;23129;49.662;8.448;2023-08-17T10:06:05;100808.66;;;28.61;100.00
37238;BME280;23129;49.662;8.448;2023-08-17T10:08:39;100818.59;;;28.61;100.00
37238;BME280;23129;49.662;8.448;2023-08-17T10:11:10;100820.34;;;28.52;100.00
37238;BME280;23129;49.662;8.448;2023-08-17T10:13:46;100811.00;;;28.47;100.00
37238;BME280;23129;49.662;8.448;2023-08-17T10:16:22;100812.72;;;28.93;100.00
37238;BME280;23129;49.662;8.448;2023-08-17T10:19:03;100806.44;;;29.02;100.00
37238;BME280;23129;49.662;8.448;2023-08-17T10:21:37;100813.94;;;29.52;100.00
37238;BME280;23129;49.662;8.448;2023-08-17T10:24:08;100813.91;;;29.88;100.00
37238;BME280;23129;49.662;8.448;2023-08-17T10:26:37;100808.59;;;30.05;100.00
37238;BME280;23129;49.662;8.448;2023-08-17T10:29:08;100804.28;;;30.20;100.00
37238;BME280;23129;49.662;8.448;2023-08-17T10:31:44;100803.84;;;30.24;100.00
37238;BME280;23129;49.662;8.448;2023-08-17T10:34:14;100800.72;;;30.45;100.00
37238;BME280;23129;49.662;8.448;2023-08-17T10:36:43;100800.13;;;30.76;100.00
37238;BME280;23129;49.662;8.448;2023-08-17T10:39:22;100801.88;;;31.02;100.00
37238;BME280;23129;49.662;8.448;2023-08-17T10:41:56;100807.50;;;31.25;100.00
37238;BME280;23129;49.662;8.448;2023-08-17T10:44:44;100802.94;;;31.58;100.00
37238;BME280;23129;49.662;8.448;2023-08-17T10:47:21;100788.03;;;31.62;100.00
37238;BME280;23129;49.662;8.448;2023-08-17T10:49:51;100793.41;;;31.87;100.00
37238;BME280;23129;49.662;8.448;2023-08-17T10:52:27;100786.31;;;31.77;100.00
37238;BME280;23129;49.662;8.448;2023-08-17T10:54:56;100786.66;;;31.74;100.00
37238;BME280;23129;49.662;8.448;2023-08-17T10:57:31;100783.22;;;31.89;100.00
37238;BME280;23129;49.662;8.448;2023-08-17T11:00:14;100787.94;;;32.11;100.00
37238;BME280;23129;49.662;8.448;2023-08-17T11:02:52;100784.78;;;32.39;100.00
37238;BME280;23129;49.662;8.448;2023-08-17T11:05:40;100778.94;;;32.58;100.00
37238;BME280;23129;49.662;8.448;2023-08-17T11:08:11;100784.72;;;32.55;100.00
37238;BME280;23129;49.662;8.448;2023-08-17T11:10:48;100783.81;;;32.63;100.00
37238;BME280;23129;49.662;8.448;2023-08-17T11:13:18;100775.69;;;32.63;100.00
37238;BME280;23129;49.662;8.448;2023-08-17T11:15:47;100784.97;;;32.68;100.00
37238;BME280;23129;49.662;8.448;2023-08-17T11:18:16;100786.66;;;32.69;100.00
37238;BME280;23129;49.662;8.448;2023-08-17T11:20:45;100784.63;;;32.71;100.00
37238;BME280;23129;49.662;8.448;2023-08-17T11:23:14;100775.34;;;32.89;100.00
37238;BME280;23129;49.662;8.448;2023-08-17T11:25:43;100765.72;;;33.09;100.00
37238;BME280;23129;49.662;8.448;2023-08-17T11:28:12;100777.19;;;33.19;100.00
37238;BME280;23129;49.662;8.448;2023-08-17T11:30:42;100771.97;;;33.33;100.00
37238;BME280;23129;49.662;8.448;2023-08-17T11:33:15;100767.13;;;33.43;100.00
37238;BME280;23129;49.662;8.448;2023-08-17T11:35:44;100766.06;;;33.67;100.00
37238;BME280;23129;49.662;8.448;2023-08-17T11:38:13;100778.25;;;33.86;100.00
37238;BME280;23129;49.662;8.448;2023-08-17T11:40:41;100773.22;;;34.13;100.00
37238;BME280;23129;49.662;8.448;2023-08-17T11:43:10;100772.09;;;34.22;100.00
37238;BME280;23129;49.662;8.448;2023-08-17T11:45:40;100768.50;;;34.36;100.00
37238;BME280;23129;49.662;8.448;2023-08-17T11:48:09;100763.78;;;34.60;100.00
37238;BME280;23129;49.662;8.448;2023-08-17T11:50:40;100769.22;;;34.60;100.00
37238;BME280;23129;49.662;8.448;2023-08-17T11:53:08;100773.41;;;34.56;100.00
37238;BME280;23129;49.662;8.448;2023-08-17T11:55:37;100778.38;;;33.93;100.00
37238;BME280;23129;49.662;8.448;2023-08-17T11:58:06;100784.28;;;32.97;100.00
37238;BME280;23129;49.662;8.448;2023-08-17T12:00:39;100796.75;;;32.13;100.00
37238;BME280;23129;49.662;8.448;2023-08-17T12:03:08;100804.63;;;31.59;100.00
37238;BME280;23129;49.662;8.448;2023-08-17T12:05:38;100809.72;;;31.29;100.00
37238;BME280;23129;49.662;8.448;2023-08-17T12:08:08;100795.16;;;31.55;100.00
37238;BME280;23129;49.662;8.448;2023-08-17T12:10:37;100797.03;;;31.54;100.00
37238;BME280;23129;49.662;8.448;2023-08-17T12:13:06;100785.66;;;31.59;100.00
37238;BME280;23129;49.662;8.448;2023-08-17T12:15:39;100801.25;;;31.41;100.00
37238;BME280;23129;49.662;8.448;2023-08-17T12:18:07;100795.44;;;30.95;100.00
37238;BME280;23129;49.662;8.448;2023-08-17T12:20:36;100806.00;;;30.55;100.00
37238;BME280;23129;49.662;8.448;2023-08-17T12:23:07;100819.09;;;30.08;100.00
37238;BME280;23129;49.662;8.448;2023-08-17T12:25:35;100820.72;;;29.92;100.00
37238;BME280;23129;49.662;8.448;2023-08-17T12:28:04;100809.53;;;30.56;100.00
37238;BME280;23129;49.662;8.448;2023-08-17T12:30:33;100807.53;;;31.49;100.00
37238;BME280;23129;49.662;8.448;2023-08-17T12:33:04;100809.66;;;32.11;100.00
37238;BME280;23129;49.662;8.448;2023-08-17T12:35:32;100791.41;;;32.36;100.00
37238;BME280;23129;49.662;8.448;2023-08-17T12:38:01;100785.16;;;32.98;100.00
37238;BME280;23129;49.662;8.448;2023-08-17T12:40:31;100784.72;;;33.70;100.00
37238;BME280;23129;49.662;8.448;2023-08-17T12:43:00;100786.59;;;34.07;100.00
37238;BME280;23129;49.662;8.448;2023-08-17T12:45:28;100779.97;;;33.87;100.00
37238;BME280;23129;49.662;8.448;2023-08-17T12:47:59;100775.03;;;33.53;100.00
37238;BME280;23129;49.662;8.448;2023-08-17T12:50:27;100764.09;;;33.00;100.00
37238;BME280;23129;49.662;8.448;2023-08-17T12:52:56;100754.72;;;32.40;100.00
37238;BME280;23129;49.662;8.448;2023-08-17T12:55:25;100745.22;;;31.89;100.00